Terminal Aerodrome Forecast
Issued by NWS Sterling, VA

Current Version | Previous Version | Graphics & Text | Print | Product List | Glossary Off
Versions: 1 2 3 4 5 6 7 8 9 10 11 12 13 14 15 16 17 18 19 20 21 22 23 24 25 26 27 28

000
FTUS41 KLWX 302053 AAA
TAFDCA
TAF AMD
KDCA 302053Z 3021/0118 20009KT P6SM SCT040
     FM302300 17006KT P6SM VCTS BKN040CB
     FM010700 VRB03KT P6SM OVC050
     FM011300 26005KT P6SM SCT250
     FM011400 26006KT P6SM SCT050=

USA.gov is the U.S. government's official web portal to all federal, state and local government web resources and services.